• Join FlightAware (Why Join?)
  • Login
  • US Flag 
04:03AM EDT


 

Airport Tracker/Info


-or-


 

Live Flight TrackerFlight Track Log ✈ N799CP ✈ 21-Oct-2013 ✈ KBJC - KSTP

Flight Track Log - Related Links

Times and Time Zones

All times are in EDT time to prevent confusion due to time zone crossing. See the N799CP flight status page for this flight to view local times or setup timezone preferences in your user account.

Time Position Orientation Groundspeed Altitude Reporting Facility
EDT Latitude Longitude Course Direction KTS MPH feet Rate Location/Type
11:40AM 39.9090 -105.1165 304° West 148 170 5,400  Level FlightAware ADS-B (KEIK)
11:42AM 39.8486 -104.8696 109° East  Level FlightAware Approximate
11:43AM 39.8131 -104.7288 102° East  Level FlightAware Approximate
11:44AM 39.8485 -104.6258 21° North  Level FlightAware Approximate
11:44AM 40.1644 -104.9219 21° North 373 429 16,900  Level FlightAware ADS-B (KEIK)
11:45AM 40.2166 -104.8359 51° Northeast 355 409 20,600 3,600 Climbing FlightAware ADS-B (KEIK)
11:46AM 40.2573 -104.7690 51° Northeast 366 421 22,800 2,340 Climbing FlightAware ADS-B (KEIK)
11:48AM 40.4224 -104.4956 52° Northeast 401 461 28,400 1,800 Climbing FlightAware ADS-B (KEIK)
11:50AM 40.5272 -104.3189 52° Northeast 415 478 30,000 600 Climbing Denver Center
11:51AM 40.6114 -104.2158 43° Northeast 420 483 30,000  Level Denver Center
11:52AM 40.7136 -104.1569 24° Northeast 401 461 30,000 600 Level Denver Center
11:53AM 40.8172 -104.1011 22° Northeast 402 463 31,300 1,260 Climbing Denver Center
11:54AM 40.9222 -103.9617 45° Northeast 443 510 32,700 1,320 Climbing Denver Center
11:55AM 41.0053 -103.8411 48° Northeast 457 526 34,100 1,500 Climbing Denver Center
11:56AM 41.1031 -103.7017 47° Northeast 463 533 35,800 1,320 Climbing Denver Center
11:57AM 41.1836 -103.5828 48° Northeast 457 526 36,900 540 Climbing Denver Center
11:58AM 41.2656 -103.4647 47° Northeast 455 524 37,000 60 Climbing Denver Center
11:59AM 41.3606 -103.3256 48° Northeast 455 524 37,100 480 Climbing Denver Center
12:00PM 41.4256 -103.1850 58° Northeast 470 541 38,100 960 Climbing Denver Center
12:01PM 41.4972 -103.0142 61° Northeast 473 544 39,200 1,140 Climbing Denver Center
12:02PM 41.5572 -102.8667 61° Northeast 474 545 40,500 840 Climbing Denver Center
12:03PM 41.6261 -102.6967 61° Northeast 469 540 41,000 240 Climbing Denver Center
12:04PM 41.6922 -102.5325 62° Northeast 477 549 41,000  Level Denver Center
12:05PM 41.7578 -102.3706 61° Northeast 484 557 41,000  Level Denver Center
12:06PM 41.8239 -102.2044 62° Northeast 479 551 41,000  Level Denver Center
12:07PM 41.8844 -102.0539 62° Northeast 479 551 41,000  Level Denver Center
12:08PM 41.9558 -101.8756 62° Northeast 485 558 41,000  Level Denver Center
12:09PM 42.0153 -101.7225 62° Northeast 482 555 41,000  Level Denver Center
12:10PM 42.0853 -101.5444 62° Northeast 480 552 41,000  Level Denver Center
12:11PM 42.1456 -101.3897 62° Northeast 483 556 41,000  Level Denver Center
12:12PM 42.2050 -101.2358 62° Northeast 483 556 41,000  Level Denver Center
12:13PM 42.2736 -101.0589 62° Northeast 478 550 41,000  Level Denver Center
12:14PM 42.3322 -100.9044 63° Northeast 480 552 41,000  Level Denver Center
12:15PM 42.4011 -100.7239 63° Northeast 482 555 41,000  Level Denver Center
12:16PM 42.4597 -100.5675 63° Northeast 485 558 41,000  Level Denver Center
12:18PM 42.5292 -100.3833 63° Northeast 489 563 41,000  Level Denver Center
12:19PM 42.5875 -100.2261 63° Northeast 489 563 41,000  Level Denver Center
12:20PM 42.6567 -100.0397 63° Northeast 493 567 41,000  Level Denver Center
12:21PM 42.7156 -99.8817 63° Northeast 487 560 41,000  Level Denver Center
12:22PM 42.7817 -99.7203 61° Northeast 489 563 41,000  Level Denver Center
12:23PM 42.8519 -99.5669 58° Northeast 482 555 41,000  Level Denver Center
12:24PM 42.9211 -99.4114 59° Northeast 481 554 41,000  Level Denver Center
12:30PM 43.3634 -98.4095 59° Northeast 489 563 41,000  Level FlightAware ADS-B
12:30PM 43.3820 -98.3664 59° Northeast 489 563 41,000  Level FlightAware ADS-B
12:32PM 43.4909 -98.1130 59° Northeast 485 558 41,000  Level FlightAware ADS-B
12:32PM 43.5133 -98.0604 60° Northeast 485 558 41,000  Level FlightAware ADS-B
12:33PM 43.5639 -97.9416 60° Northeast 483 556 41,000  Level FlightAware ADS-B
12:34PM 43.6027 -97.8505 60° Northeast 482 555 41,000  Level FlightAware ADS-B
12:35PM 43.7158 -97.5840 60° Northeast 481 554 41,000  Level FlightAware ADS-B
12:36PM 43.7925 -97.4003 60° Northeast 473 544 41,000  Level Minneapolis Center
12:37PM 43.8572 -97.2436 60° Northeast 470 541 41,000  Level Minneapolis Center
12:38PM 43.9358 -97.0536 60° Northeast 473 544 41,000 -300 Level Minneapolis Center
12:44PM 44.2915 -96.1820 60° Northeast 487 560 39,200 -540 Descending FlightAware ADS-B
12:45PM 44.3375 -96.0706 60° Northeast 484 557 37,700 -1,800 Descending Minneapolis Center
12:46PM 44.4017 -95.9083 61° Northeast 479 551 36,000 -900 Descending Minneapolis Center
12:47PM 44.4656 -95.7483 61° Northeast 473 544 35,900 -1,740 Descending Minneapolis Center
12:48PM 44.5436 -95.5486 61° Northeast 483 556 32,500 -3,120 Descending Minneapolis Center
12:49PM 44.6039 -95.3739 64° Northeast 495 570 29,500 -2,940 Descending Minneapolis Center
12:50PM 44.6406 -95.1878 74° East 496 571 26,500 -3,000 Descending Minneapolis Center
12:51PM 44.6781 -95.0103 73° East 479 551 23,300 -3,000 Descending Minneapolis Center
12:52PM 44.7136 -94.8397 74° East 462 532 20,300 -2,820 Descending Minneapolis Center
12:53PM 44.7469 -94.6758 74° East 445 512 17,500 -2,760 Descending Minneapolis Center
12:54PM 44.7814 -94.5103 74° East 396 456 14,600 -2,520 Descending Minneapolis Center
12:55PM 44.8075 -94.3833 74° East 339 390 12,400 -2,160 Descending Minneapolis Center
12:56PM 44.8308 -94.2633 75° East 319 367 10,200 -2,100 Descending Minneapolis Center
12:57PM 44.8622 -94.1217 73° East 316 364 8,100 -1,500 Descending Minneapolis Center
12:58PM 44.8708 -94.0203 83° East 291 335 7,200 -1,020 Descending Minneapolis Center
12:59PM 44.8278 -93.9281 123° Southeast 284 327 6,000 -960 Descending Minneapolis Center
01:00PM 44.7914 -93.8458 122° Southeast 254 292 5,300 -540 Descending Minneapolis Center
01:01PM 44.7572 -93.7725 123° Southeast 229 264 5,000 -180 Descending Minneapolis Center
01:02PM 44.7317 -93.6903 114° Southeast 230 265 5,000 -60 Level Minneapolis Center
01:03PM 44.7194 -93.5908 100° East 231 266 4,900 -60 Descending Minneapolis Center
01:04PM 44.7431 -93.5100 68° East 224 258 4,900  Level Minneapolis Center
01:05PM 44.7667 -93.4306 67° East 221 254 5,000  Climbing Minneapolis Center
01:06PM 44.7906 -93.3506 67° East 221 254 5,000 -60 Level Minneapolis Center
01:07PM 44.8150 -93.2694 67° East 221 254 4,900  Descending Minneapolis Center
01:08PM 44.8481 -93.1944 58° Northeast 222 255 5,000 -180 Climbing Minneapolis Center
01:09PM 44.8900 -93.1347 45° Northeast 217 250 4,600 -1,260 Descending Minneapolis Center
01:11PM 44.9533 -93.0667 37° Northeast 242 278 2,500 -1,320 Descending Minneapolis Center
01:12PM 44.9292 -93.0056 119° Southeast 189 217 1,900 -780 Descending Minneapolis Center
01:13PM 44.9147 -93.0403 240° Southwest 134 154 1,000 -900 Descending Minneapolis Center